Terminal Aerodrome Forecast
Issued by NWS Louisville, KY

Home | Current Version | Previous Version | Text Only | Print | Product List | Glossary On
Versions: 1 2 3 4 5 6 7 8 9 10 11 12 13 14 15 16 17 18 19 20
000
FTUS43 KLMK 191723
TAFBWG
TAF
KBWG 191723Z 1918/2018 VRB03KT P6SM BKN015
      TEMPO 1918/1920 SCT015 BKN022
     FM192000 VRB03KT P6SM SCT022 SCT250
     FM200500 VRB03KT 5SM BR FEW012 BKN200
     FM200900 00000KT 3SM BR BKN008
     FM201400 12003KT P6SM FEW010 BKN200=

USA.gov is the U.S. government's official web portal to all federal, state and local government web resources and services.